createdAt,value
2017-09-13T08:05:57.421Z,989.40
2017-09-13T08:06:58.053Z,989.56
2017-09-13T08:07:58.677Z,989.52
2017-09-13T08:09:12.918Z,989.30
2017-09-13T08:10:13.538Z,989.65
2017-09-13T08:11:14.163Z,989.74
2017-09-13T08:12:14.782Z,989.77
2017-09-13T08:13:15.391Z,989.61
2017-09-13T08:14:53.616Z,989.78
2017-09-13T08:15:54.244Z,989.75
2017-09-13T08:16:54.883Z,989.63
2017-09-13T08:17:55.511Z,989.80
2017-09-13T08:18:56.132Z,989.74
2017-09-13T08:19:56.781Z,989.53
2017-09-13T08:20:57.420Z,989.83
2017-09-13T08:21:58.197Z,989.79
2017-09-13T08:22:58.959Z,989.77
2017-09-13T08:23:59.581Z,989.78
2017-09-13T08:25:00.213Z,989.78
2017-09-13T08:26:00.837Z,989.79
2017-09-13T08:27:01.486Z,989.83
2017-09-13T08:28:02.113Z,990.00
2017-09-13T08:29:02.728Z,989.83
2017-09-13T08:30:03.433Z,990.12
2017-09-13T08:31:04.076Z,989.88
2017-09-13T08:32:04.700Z,990.09
2017-09-13T08:33:05.334Z,989.89
2017-09-13T08:34:05.972Z,990.09
2017-09-13T08:35:06.603Z,989.82
2017-09-13T08:36:07.241Z,989.97
2017-09-13T08:37:07.894Z,989.91
2017-09-13T08:38:08.534Z,990.07
2017-09-13T08:39:09.167Z,990.03
2017-09-13T08:40:09.793Z,989.95
2017-09-13T08:41:10.398Z,990.07
2017-09-13T08:42:11.030Z,989.78
2017-09-13T08:43:11.664Z,989.68
2017-09-13T08:44:12.290Z,990.03
2017-09-13T08:45:12.922Z,990.09
2017-09-13T10:22:48.226Z,991.13
